createdAt,value
2019-04-01T00:01:44.142Z,67.99
2019-04-01T00:04:12.208Z,67.45
2019-04-01T00:06:40.061Z,67.40
2019-04-01T00:09:08.229Z,69.21
2019-04-01T00:11:36.539Z,67.81
2019-04-01T00:14:04.605Z,67.40
2019-04-01T00:16:32.630Z,68.84
2019-04-01T00:19:03.285Z,66.75
2019-04-01T00:21:29.467Z,67.53
2019-04-01T00:23:57.403Z,68.81
2019-04-01T00:26:25.792Z,69.26
2019-04-01T00:28:53.066Z,68.55
2019-04-01T00:31:21.338Z,69.26
2019-04-01T00:33:48.879Z,68.90
2019-04-01T00:36:16.577Z,67.40
2019-04-01T00:38:44.568Z,67.26
2019-04-01T00:41:12.375Z,70.42
2019-04-01T00:43:59.577Z,68.21
2019-04-01T00:46:27.419Z,70.65
2019-04-01T00:48:55.809Z,69.56
2019-04-01T00:51:23.726Z,68.33
2019-04-01T00:53:51.247Z,69.44
2019-04-01T00:56:18.654Z,68.62
2019-04-01T00:58:46.398Z,67.56
2019-04-01T01:01:14.152Z,70.03
2019-04-01T01:03:41.887Z,69.20
2019-04-01T01:06:09.789Z,68.36
2019-04-01T01:08:37.838Z,68.07
2019-04-01T01:11:06.149Z,68.59
2019-04-01T01:13:33.944Z,67.71
2019-04-01T01:16:01.826Z,67.63
2019-04-01T01:18:29.826Z,68.57
2019-04-01T01:20:57.445Z,68.53
2019-04-01T01:23:24.994Z,67.96
2019-04-01T01:25:53.190Z,68.80
2019-04-01T01:28:21.089Z,69.82
2019-04-01T01:30:48.543Z,68.89
2019-04-01T01:33:16.183Z,70.65
2019-04-01T01:35:43.935Z,70.17
2019-04-01T01:38:11.339Z,70.37
2019-04-01T01:40:39.062Z,71.48
2019-04-01T01:43:07.055Z,70.52
2019-04-01T01:45:34.605Z,69.63
2019-04-01T01:48:02.294Z,70.61
2019-04-01T01:50:29.715Z,69.49
2019-04-01T01:52:57.277Z,70.46
2019-04-01T01:55:24.813Z,71.95
2019-04-01T01:57:52.291Z,70.25
2019-04-01T02:00:20.836Z,70.22
2019-04-01T02:02:49.227Z,70.17
2019-04-01T02:05:16.759Z,69.72
2019-04-01T02:07:44.863Z,71.05
2019-04-01T02:10:13.065Z,71.09
2019-04-01T02:12:40.374Z,71.47
2019-04-01T02:15:08.555Z,71.96
2019-04-01T02:17:36.959Z,70.85
2019-04-01T02:20:05.145Z,71.89
2019-04-01T02:22:32.693Z,71.53
2019-04-01T02:25:00.531Z,72.58
2019-04-01T02:27:28.299Z,73.76
2019-04-01T02:29:56.295Z,73.20
2019-04-01T02:32:23.682Z,73.12
2019-04-01T02:34:51.256Z,73.68
2019-04-01T02:37:18.731Z,72.73
2019-04-01T02:39:46.460Z,74.10
2019-04-01T02:42:14.513Z,72.74
2019-04-01T02:44:42.698Z,72.67
2019-04-01T02:47:10.721Z,71.17
2019-04-01T02:49:38.498Z,71.67
2019-04-01T02:52:05.840Z,73.57
2019-04-01T02:54:33.927Z,73.92
2019-04-01T02:57:01.498Z,71.49
2019-04-01T02:59:29.179Z,71.85
2019-04-01T03:01:57.142Z,74.48
2019-04-01T03:04:24.525Z,72.72
2019-04-01T03:06:52.448Z,73.94
2019-04-01T03:09:20.099Z,72.16
2019-04-01T03:11:48.013Z,73.07
2019-04-01T03:14:15.883Z,71.61
2019-04-01T03:16:44.044Z,71.68
2019-04-01T03:19:11.736Z,71.22
2019-04-01T03:21:39.400Z,72.15
2019-04-01T03:26:31.465Z,73.39
2019-04-01T03:28:59.132Z,73.99
2019-04-01T03:31:26.956Z,73.56
2019-04-01T03:33:54.721Z,73.99
2019-04-01T03:36:22.800Z,73.38
2019-04-01T03:38:50.761Z,73.59
2019-04-01T03:41:18.167Z,74.39
2019-04-01T03:43:45.945Z,73.55
2019-04-01T03:46:13.124Z,73.24
2019-04-01T03:48:40.773Z,73.15
2019-04-01T03:51:08.220Z,74.59
2019-04-01T03:53:35.959Z,74.27
2019-04-01T03:56:03.628Z,74.06
2019-04-01T03:58:31.241Z,73.09
2019-04-01T04:00:59.168Z,74.03
2019-04-01T04:03:26.783Z,74.52
2019-04-01T04:05:54.655Z,74.65
2019-04-01T04:08:22.606Z,73.78
2019-04-01T04:10:50.297Z,74.52
2019-04-01T04:13:17.990Z,73.33
2019-04-01T04:15:46.143Z,73.39
2019-04-01T04:18:13.931Z,74.03
2019-04-01T04:20:41.937Z,73.61
2019-04-01T04:23:09.839Z,74.33
2019-04-01T04:25:38.658Z,75.55
2019-04-01T04:28:06.534Z,74.67
2019-04-01T04:30:34.810Z,74.62
2019-04-01T04:33:02.604Z,73.55
2019-04-01T04:35:29.995Z,74.58
2019-04-01T04:37:57.535Z,75.54
2019-04-01T04:40:25.276Z,74.01
2019-04-01T04:42:53.172Z,73.84
2019-04-01T04:45:21.226Z,74.57
2019-04-01T04:47:48.980Z,74.73
2019-04-01T04:50:17.178Z,73.81
2019-04-01T04:52:45.154Z,75.24
2019-04-01T04:55:12.393Z,75.75
2019-04-01T04:57:39.793Z,74.58
2019-04-01T05:00:07.730Z,74.61
2019-04-01T05:02:35.282Z,75.06
2019-04-01T05:05:03.322Z,74.01
2019-04-01T05:07:31.515Z,75.07
2019-04-01T05:09:58.775Z,75.83
2019-04-01T05:12:26.321Z,75.20
2019-04-01T05:14:53.845Z,76.19
2019-04-01T05:17:22.014Z,75.05
2019-04-01T05:19:49.664Z,74.57
2019-04-01T05:22:20.561Z,76.05
2019-04-01T05:24:50.229Z,75.61
2019-04-01T05:29:47.560Z,75.97
2019-04-01T05:32:18.062Z,75.44
2019-04-01T05:34:48.444Z,74.68
2019-04-01T05:37:16.330Z,75.62
2019-04-01T05:39:45.116Z,75.98
2019-04-01T05:42:12.519Z,75.98
2019-04-01T05:44:40.063Z,74.66
2019-04-01T05:47:07.740Z,75.37
2019-04-01T05:49:35.503Z,75.38
2019-04-01T05:52:03.108Z,75.11
2019-04-01T05:54:31.020Z,75.15
2019-04-01T05:56:59.355Z,74.34
2019-04-01T05:59:27.961Z,74.59
2019-04-01T06:01:56.144Z,74.35
2019-04-01T06:04:23.414Z,73.97
2019-04-01T06:06:51.257Z,73.85
2019-04-01T06:09:19.282Z,73.80
2019-04-01T06:11:47.933Z,73.67
2019-04-01T06:14:15.350Z,73.30
2019-04-01T06:16:42.922Z,72.87
2019-04-01T06:19:11.020Z,73.01
2019-04-01T06:21:38.579Z,72.48
2019-04-01T06:24:07.152Z,72.35
2019-04-01T06:26:34.566Z,71.83
2019-04-01T06:29:02.161Z,71.44
2019-04-01T06:31:29.879Z,70.14
2019-04-01T06:33:57.411Z,69.41
2019-04-01T06:36:25.625Z,68.65
2019-04-01T06:38:53.491Z,67.83
2019-04-01T06:41:21.465Z,66.69
2019-04-01T06:43:49.270Z,65.34
2019-04-01T06:46:17.932Z,63.73
2019-04-01T06:48:46.041Z,61.29
2019-04-01T06:51:13.993Z,60.06
2019-04-01T06:53:44.633Z,58.73
2019-04-01T06:56:12.609Z,57.60
2019-04-01T06:58:40.193Z,56.39
2019-04-01T07:01:08.329Z,55.83
2019-04-01T07:03:35.862Z,54.80
2019-04-01T07:06:07.945Z,54.42
2019-04-01T07:08:35.865Z,53.37
2019-04-01T07:11:04.117Z,52.69
2019-04-01T07:13:31.930Z,50.28
2019-04-01T07:16:14.374Z,51.45
2019-04-01T07:18:29.476Z,49.37
2019-04-01T07:20:57.302Z,49.62
2019-04-01T07:23:25.325Z,47.95
2019-04-01T07:25:53.091Z,50.33
2019-04-01T07:28:20.962Z,46.41
2019-04-01T07:30:49.118Z,46.68
2019-04-01T07:33:16.875Z,44.53
2019-04-01T07:35:46.630Z,44.85
2019-04-01T07:38:14.302Z,44.81
2019-04-01T07:40:42.680Z,42.53
2019-04-01T07:43:10.790Z,40.74
2019-04-01T07:45:39.140Z,42.06
2019-04-01T07:48:06.810Z,39.94
2019-04-01T07:50:34.688Z,40.40
2019-04-01T07:53:02.224Z,41.35
2019-04-01T07:55:30.076Z,40.75
2019-04-01T07:57:59.701Z,39.26
2019-04-01T08:00:27.814Z,43.15
2019-04-01T08:02:55.988Z,42.61
2019-04-01T08:05:26.040Z,42.19
2019-04-01T08:07:54.067Z,40.68
2019-04-01T08:10:21.525Z,38.41
2019-04-01T08:12:49.986Z,39.31
2019-04-01T08:15:21.154Z,40.25
2019-04-01T08:17:47.195Z,40.45
2019-04-01T08:20:15.503Z,41.53
2019-04-01T08:22:43.622Z,38.79
2019-04-01T08:25:11.231Z,38.79
2019-04-01T08:27:39.121Z,38.22
2019-04-01T08:30:07.734Z,38.56
2019-04-01T08:32:35.757Z,36.40
2019-04-01T08:35:03.945Z,37.82
2019-04-01T08:37:31.716Z,36.86
2019-04-01T08:39:59.648Z,34.58
2019-04-01T08:42:27.038Z,36.26
2019-04-01T08:44:55.755Z,34.38
2019-04-01T08:47:23.832Z,36.00
2019-04-01T08:49:52.317Z,34.53
2019-04-01T08:52:20.566Z,36.17
2019-04-01T08:54:48.099Z,35.23
2019-04-01T08:57:15.978Z,35.74
2019-04-01T08:59:43.430Z,36.34
2019-04-01T09:02:18.287Z,34.50
2019-04-01T09:04:42.006Z,34.66
2019-04-01T09:07:09.513Z,33.55
2019-04-01T09:09:38.614Z,33.39
2019-04-01T09:12:07.230Z,32.22
2019-04-01T09:14:36.467Z,32.32
2019-04-01T09:17:04.337Z,33.08
2019-04-01T09:19:33.118Z,33.40
2019-04-01T09:22:01.412Z,32.57
2019-04-01T09:24:28.938Z,31.92
2019-04-01T09:26:56.338Z,30.07
2019-04-01T09:29:23.923Z,29.92
2019-04-01T09:31:51.583Z,28.67
2019-04-01T09:34:19.448Z,31.44
2019-04-01T09:36:47.387Z,31.20
2019-04-01T09:39:14.839Z,29.16
2019-04-01T09:41:43.187Z,29.41
2019-04-01T09:44:10.854Z,27.95
2019-04-01T09:46:38.250Z,28.18
2019-04-01T09:49:06.178Z,27.40
2019-04-01T09:51:47.894Z,28.50
2019-04-01T09:54:04.085Z,26.62
2019-04-01T09:56:31.959Z,28.03
2019-04-01T09:58:59.497Z,28.72
2019-04-01T10:01:27.639Z,28.26
2019-04-01T10:03:55.716Z,27.67
2019-04-01T10:06:23.728Z,27.30
2019-04-01T10:08:51.263Z,27.20
2019-04-01T10:11:18.740Z,26.84
2019-04-01T10:13:46.735Z,26.36
2019-04-01T10:16:14.298Z,27.13
2019-04-01T10:18:42.123Z,26.59
2019-04-01T10:21:10.655Z,26.03
2019-04-01T10:23:38.128Z,26.54
2019-04-01T10:26:05.677Z,25.93
2019-04-01T10:28:33.197Z,25.52
2019-04-01T10:31:01.337Z,25.15
2019-04-01T10:33:28.759Z,25.00
2019-04-01T10:35:56.281Z,24.47
2019-04-01T10:38:24.184Z,23.88
2019-04-01T10:40:51.640Z,24.05
2019-04-01T10:43:19.780Z,23.35
2019-04-01T10:45:47.277Z,21.87
2019-04-01T10:48:15.024Z,23.23
2019-04-01T10:50:42.816Z,23.17
2019-04-01T10:53:10.296Z,22.46
2019-04-01T10:55:37.913Z,21.71
2019-04-01T10:58:05.746Z,21.46
2019-04-01T11:00:33.793Z,22.11
2019-04-01T11:03:01.345Z,21.70
2019-04-01T11:05:28.894Z,21.60
2019-04-01T11:07:56.672Z,20.58
2019-04-01T11:10:24.529Z,21.59
2019-04-01T11:12:53.883Z,21.26
2019-04-01T11:15:21.596Z,21.66
2019-04-01T11:17:52.299Z,21.13
2019-04-01T11:20:19.147Z,21.41
2019-04-01T11:22:46.747Z,20.95
2019-04-01T11:25:14.917Z,20.85
2019-04-01T11:27:42.182Z,21.18
2019-04-01T11:30:13.694Z,21.12
2019-04-01T11:32:40.850Z,20.77
2019-04-01T11:35:08.401Z,20.44
2019-04-01T11:37:36.128Z,20.66
2019-04-01T11:40:05.150Z,20.75
2019-04-01T11:42:33.132Z,20.31
2019-04-01T11:45:05.905Z,21.33
2019-04-01T11:47:34.156Z,21.12
2019-04-01T11:50:02.813Z,21.43
2019-04-01T11:52:30.346Z,21.21
2019-04-01T11:54:58.808Z,21.93
2019-04-01T11:57:26.585Z,20.76
2019-04-01T11:59:54.249Z,21.74
2019-04-01T12:02:22.387Z,21.86
2019-04-01T12:04:50.204Z,20.63
2019-04-01T12:07:18.200Z,21.41
2019-04-01T12:09:46.356Z,22.60
2019-04-01T12:12:23.458Z,20.85
2019-04-01T12:14:44.404Z,22.18
2019-04-01T12:17:12.584Z,22.10
2019-04-01T12:19:40.470Z,22.43
2019-04-01T12:22:08.551Z,21.89
2019-04-01T12:24:36.351Z,22.23
2019-04-01T12:27:04.120Z,21.10
2019-04-01T12:29:31.817Z,21.87
2019-04-01T12:31:59.966Z,21.87
2019-04-01T12:34:28.885Z,22.94
2019-04-01T12:36:56.738Z,22.44
2019-04-01T12:39:24.669Z,22.68
2019-04-01T12:41:52.294Z,22.42
2019-04-01T12:44:19.842Z,22.46
2019-04-01T12:46:47.535Z,22.47
2019-04-01T12:49:14.947Z,22.56
2019-04-01T12:51:42.222Z,22.61
2019-04-01T12:54:10.001Z,22.60
2019-04-01T12:56:37.855Z,22.98
2019-04-01T12:59:05.534Z,24.62
2019-04-01T13:01:33.721Z,23.70
2019-04-01T13:04:04.320Z,24.84
2019-04-01T13:06:32.122Z,24.36
2019-04-01T13:08:59.692Z,24.93
2019-04-01T13:11:27.898Z,24.32
2019-04-01T13:13:55.775Z,25.61
2019-04-01T13:16:23.615Z,25.04
2019-04-01T13:18:51.030Z,25.16
2019-04-01T13:21:18.627Z,25.46
2019-04-01T13:23:46.826Z,26.13
2019-04-01T13:26:14.557Z,26.42
2019-04-01T13:28:42.544Z,26.69
2019-04-01T13:31:10.952Z,27.28
2019-04-01T13:33:38.391Z,26.76
2019-04-01T13:36:07.848Z,26.72
2019-04-01T13:38:35.440Z,27.83
2019-04-01T13:41:03.266Z,28.32
2019-04-01T13:43:31.053Z,27.43
2019-04-01T13:45:58.575Z,27.80
2019-04-01T13:48:26.471Z,27.90
2019-04-01T13:50:54.336Z,28.29
2019-04-01T13:53:22.219Z,28.99
2019-04-01T13:55:50.056Z,29.18
2019-04-01T13:58:17.848Z,29.08
2019-04-01T14:00:45.827Z,29.88
2019-04-01T14:03:13.362Z,30.00
2019-04-01T14:05:40.633Z,29.53
2019-04-01T14:08:08.472Z,29.46
2019-04-01T14:10:36.629Z,30.16
2019-04-01T14:13:05.918Z,29.64
2019-04-01T14:15:33.478Z,30.02
2019-04-01T14:18:01.448Z,30.83
2019-04-01T14:20:29.034Z,30.49
2019-04-01T14:22:56.828Z,30.27
2019-04-01T14:25:24.117Z,30.45
2019-04-01T14:27:52.118Z,30.52
2019-04-01T14:30:20.309Z,31.24
2019-04-01T14:32:48.070Z,31.38
2019-04-01T14:35:15.468Z,31.26
2019-04-01T14:37:43.608Z,30.87
2019-04-01T14:40:12.399Z,30.57
2019-04-01T14:42:40.170Z,31.23
2019-04-01T14:45:09.003Z,30.39
2019-04-01T14:47:55.984Z,31.23
2019-04-01T14:50:10.799Z,31.40
2019-04-01T14:52:38.515Z,30.56
2019-04-01T14:55:06.606Z,30.77
2019-04-01T14:57:34.762Z,31.53
2019-04-01T15:00:03.046Z,31.44
2019-04-01T15:02:30.570Z,31.68
2019-04-01T15:04:58.186Z,31.01
2019-04-01T15:07:26.153Z,31.62
2019-04-01T15:09:53.935Z,30.37
2019-04-01T15:12:21.908Z,31.69
2019-04-01T15:14:49.154Z,30.80
2019-04-01T15:17:17.472Z,31.59
2019-04-01T15:19:48.413Z,31.56
2019-04-01T15:22:14.817Z,31.51
2019-04-01T15:24:43.278Z,30.85
2019-04-01T15:27:13.511Z,31.48
2019-04-01T15:29:40.952Z,30.98
2019-04-01T15:32:08.488Z,31.04
2019-04-01T15:34:36.389Z,30.85
2019-04-01T15:37:04.632Z,31.62
2019-04-01T15:39:32.471Z,30.97
2019-04-01T15:42:00.007Z,31.47
2019-04-01T15:44:29.261Z,32.15
2019-04-01T15:46:56.899Z,32.59
2019-04-01T15:49:24.495Z,31.97
2019-04-01T15:51:52.311Z,32.30
2019-04-01T15:54:20.755Z,32.62
2019-04-01T15:56:49.140Z,33.08
2019-04-01T15:59:17.313Z,32.73
2019-04-01T16:01:45.550Z,32.97
2019-04-01T16:04:16.272Z,33.13
2019-04-01T16:06:42.567Z,33.09
2019-04-01T16:09:10.370Z,33.28
2019-04-01T16:11:37.681Z,32.51
2019-04-01T16:14:05.837Z,32.90
2019-04-01T16:16:33.547Z,33.82
2019-04-01T16:19:01.634Z,32.97
2019-04-01T16:21:31.438Z,34.41
2019-04-01T16:23:58.918Z,33.31
2019-04-01T16:26:26.831Z,33.36
2019-04-01T16:28:54.596Z,33.56
2019-04-01T16:31:22.518Z,33.37
2019-04-01T16:33:50.401Z,33.83
2019-04-01T16:36:18.528Z,33.88
2019-04-01T16:38:46.286Z,34.11
2019-04-01T16:41:14.178Z,33.91
2019-04-01T16:43:42.953Z,34.23
2019-04-01T16:46:11.361Z,34.54
2019-04-01T16:48:40.023Z,34.08
2019-04-01T16:51:07.879Z,34.31
2019-04-01T16:53:35.672Z,34.85
2019-04-01T16:56:04.342Z,34.58
2019-04-01T16:58:32.541Z,34.39
2019-04-01T17:01:02.638Z,35.21
2019-04-01T17:03:30.366Z,35.90
2019-04-01T17:05:58.394Z,35.02
2019-04-01T17:08:25.902Z,34.90
2019-04-01T17:10:53.720Z,34.96
2019-04-01T17:13:21.399Z,35.75
2019-04-01T17:15:49.488Z,36.03
2019-04-01T17:18:17.308Z,36.45
2019-04-01T17:20:44.817Z,36.88
2019-04-01T17:23:12.903Z,36.53
2019-04-01T17:25:40.650Z,36.59
2019-04-01T17:28:08.178Z,37.36
2019-04-01T17:30:35.600Z,36.91
2019-04-01T17:33:03.187Z,37.59
2019-04-01T17:35:31.015Z,37.34
2019-04-01T17:37:58.513Z,38.31
2019-04-01T17:40:26.291Z,37.75
2019-04-01T17:42:54.295Z,37.81
2019-04-01T17:45:37.999Z,37.74
2019-04-01T17:48:06.810Z,37.71
2019-04-01T17:50:34.592Z,39.06
2019-04-01T17:53:04.740Z,38.82
2019-04-01T17:55:32.283Z,38.49
2019-04-01T17:57:59.976Z,38.66
2019-04-01T18:00:28.541Z,39.04
2019-04-01T18:02:56.924Z,39.10
2019-04-01T18:05:24.859Z,39.27
2019-04-01T18:07:52.353Z,39.50
2019-04-01T18:10:20.231Z,39.83
2019-04-01T18:12:47.749Z,40.02
2019-04-01T18:15:16.339Z,40.75
2019-04-01T18:17:44.811Z,41.08
2019-04-01T18:20:12.548Z,41.03
2019-04-01T18:22:40.682Z,41.27
2019-04-01T18:25:09.308Z,41.20
2019-04-01T18:27:37.213Z,41.47
2019-04-01T18:30:06.736Z,42.42
2019-04-01T18:32:34.666Z,43.20
2019-04-01T18:35:04.213Z,42.78
2019-04-01T18:37:32.149Z,43.17
2019-04-01T18:39:59.921Z,43.51
2019-04-01T18:42:27.762Z,43.47
2019-04-01T18:44:55.991Z,44.29
2019-04-01T18:47:23.959Z,44.52
2019-04-01T18:49:51.258Z,44.59
2019-04-01T18:52:19.295Z,44.47
2019-04-01T18:54:47.058Z,44.56
2019-04-01T18:57:14.317Z,44.66
2019-04-01T18:59:42.114Z,45.36
2019-04-01T19:02:09.887Z,45.58
2019-04-01T19:04:38.336Z,45.60
2019-04-01T19:07:05.806Z,46.00
2019-04-01T19:09:33.458Z,46.22
2019-04-01T19:12:04.325Z,46.35
2019-04-01T19:14:31.160Z,46.39
2019-04-01T19:16:59.385Z,45.49
2019-04-01T19:19:26.854Z,46.44
2019-04-01T19:21:54.734Z,46.69
2019-04-01T19:24:22.154Z,47.42
2019-04-01T19:26:50.086Z,47.38
2019-04-01T19:29:17.508Z,46.81
2019-04-01T19:31:45.375Z,46.97
2019-04-01T19:34:12.654Z,47.33
2019-04-01T19:36:40.882Z,47.37
2019-04-01T19:39:08.210Z,47.11
2019-04-01T19:41:35.813Z,48.42
2019-04-01T19:44:03.726Z,47.42
2019-04-01T19:46:31.448Z,48.00
2019-04-01T19:49:01.230Z,48.76
2019-04-01T19:51:28.898Z,49.22
2019-04-01T19:53:56.297Z,48.17
2019-04-01T19:56:23.740Z,49.14
2019-04-01T19:58:51.121Z,48.98
2019-04-01T20:01:18.651Z,49.32
2019-04-01T20:03:46.226Z,48.80
2019-04-01T20:06:14.013Z,50.36
2019-04-01T20:08:41.915Z,49.55
2019-04-01T20:11:10.186Z,50.61
2019-04-01T20:13:39.294Z,50.06
2019-04-01T20:16:10.084Z,50.17
2019-04-01T20:18:36.767Z,50.89
2019-04-01T20:21:04.736Z,49.75
2019-04-01T20:23:32.011Z,50.13
2019-04-01T20:25:59.781Z,50.27
2019-04-01T20:28:27.667Z,51.30
2019-04-01T20:30:56.566Z,50.71
2019-04-01T20:33:24.413Z,51.19
2019-04-01T20:35:53.159Z,50.34
2019-04-01T20:38:20.886Z,51.64
2019-04-01T20:40:48.436Z,49.31
2019-04-01T20:43:16.256Z,49.77
2019-04-01T20:45:43.652Z,51.98
2019-04-01T20:48:11.464Z,50.08
2019-04-01T20:50:39.274Z,49.75
2019-04-01T20:53:06.974Z,50.28
2019-04-01T20:55:47.400Z,51.43
2019-04-01T20:58:04.962Z,51.10
2019-04-01T21:00:32.353Z,50.45
2019-04-01T21:03:01.301Z,51.43
2019-04-01T21:05:29.396Z,50.96
2019-04-01T21:07:57.580Z,51.43
2019-04-01T21:10:24.967Z,50.96
2019-04-01T21:12:53.701Z,51.58
2019-04-01T21:15:24.811Z,52.75
2019-04-01T21:17:53.359Z,52.47
2019-04-01T21:20:22.059Z,54.84
2019-04-01T21:22:49.591Z,56.13
2019-04-01T21:25:17.023Z,53.78
2019-04-01T21:27:44.966Z,52.60
2019-04-01T21:30:13.752Z,52.53
2019-04-01T21:32:41.745Z,52.50
2019-04-01T21:35:09.787Z,52.36
2019-04-01T21:37:37.915Z,55.09
2019-04-01T21:40:06.258Z,53.33
2019-04-01T21:42:33.809Z,52.92
2019-04-01T21:45:01.536Z,55.50
2019-04-01T21:47:29.688Z,56.28
2019-04-01T21:49:58.213Z,55.49
2019-04-01T21:52:26.151Z,54.94
2019-04-01T21:54:53.931Z,56.14
2019-04-01T21:57:22.741Z,57.54
2019-04-01T21:59:51.417Z,57.12
2019-04-01T22:02:19.035Z,56.80
2019-04-01T22:04:47.247Z,57.05
2019-04-01T22:07:15.437Z,57.73
2019-04-01T22:09:43.295Z,57.99
2019-04-01T22:12:11.037Z,58.98
2019-04-01T22:14:39.416Z,57.22
2019-04-01T22:17:06.957Z,56.99
2019-04-01T22:19:34.700Z,56.75
2019-04-01T22:22:02.054Z,58.92
2019-04-01T22:24:30.359Z,57.38
2019-04-01T22:26:58.245Z,58.24
2019-04-01T22:29:26.284Z,58.91
2019-04-01T22:31:53.817Z,59.01
2019-04-01T22:34:22.043Z,57.96
2019-04-01T22:36:50.024Z,57.54
2019-04-01T22:39:27.061Z,57.86
2019-04-01T22:41:47.785Z,56.75
2019-04-01T22:44:15.702Z,57.40
2019-04-01T22:46:43.753Z,56.78
2019-04-01T22:49:12.208Z,56.88
2019-04-01T22:51:40.919Z,57.17
2019-04-01T22:54:09.104Z,57.72
2019-04-01T22:56:37.034Z,58.09
2019-04-01T22:59:04.423Z,58.24
2019-04-01T23:01:32.292Z,58.17
2019-04-01T23:04:00.322Z,57.04
2019-04-01T23:06:27.614Z,57.81
2019-04-01T23:08:56.066Z,58.81
2019-04-01T23:11:24.208Z,58.65
2019-04-01T23:13:53.396Z,58.95
2019-04-01T23:16:20.941Z,57.47
2019-04-01T23:18:48.477Z,58.46
2019-04-01T23:21:15.901Z,59.22
2019-04-01T23:23:43.553Z,58.63
2019-04-01T23:26:11.528Z,58.83
2019-04-01T23:28:39.464Z,58.59
2019-04-01T23:31:07.951Z,58.57
2019-04-01T23:33:35.260Z,58.68
2019-04-01T23:36:02.917Z,59.19
2019-04-01T23:38:30.816Z,60.72
2019-04-01T23:40:58.096Z,61.64
2019-04-01T23:43:26.193Z,60.05
2019-04-01T23:45:54.355Z,59.11
2019-04-01T23:48:21.716Z,59.20
2019-04-01T23:50:49.332Z,60.46
2019-04-01T23:53:17.186Z,59.37
2019-04-01T23:55:45.099Z,59.32
2019-04-01T23:58:12.845Z,60.41
